LFRQ 121530Z AUTO 31010KT 9000 DZ BKN006 OVC010 10/09 Q1030 TEMPO 4000 DZ

ElémentsDécodage
LFRQ Station météo située sur l'aérodrome de QUIMPER Pluguffan
121530Z émis le 12 du mois à 15h30 UTC
AUTO Bulletin édité par un automate
31010KT vent du 310°, 10 noeuds
9000 visibilité horizontale de 9000 mètres
DZ bruine
BKN006 nuages morcelés (5/8 à 7/8) à 600 pieds
OVC010 couverture nuageuse totale (8/8) à 1000 pieds
10/09 température 10°C, point de rosée 09°C
 soit une humidité relative de 94%
Q1030 la pression au niveau de la mer (QNH) est de 1030 hPa
TEMPO fluctuation temporaire prévue
4000 visibilité horizontale de 4000 mètres
DZ bruine